createdAt,value
2019-04-30T00:00:02.334Z,993.77
2019-04-30T00:01:02.331Z,993.73
2019-04-30T00:02:02.334Z,993.71
2019-04-30T00:03:02.323Z,993.71
2019-04-30T00:04:02.315Z,993.7
2019-04-30T00:05:02.314Z,993.7
2019-04-30T00:06:02.307Z,993.72
2019-04-30T00:07:02.302Z,993.69
2019-04-30T00:08:02.293Z,993.71
2019-04-30T00:09:02.287Z,993.71
2019-04-30T00:10:02.283Z,993.72
2019-04-30T00:11:02.280Z,993.71
2019-04-30T00:12:02.267Z,993.7
2019-04-30T00:13:02.290Z,993.71
2019-04-30T00:14:02.257Z,993.72
2019-04-30T00:15:02.267Z,993.71
2019-04-30T00:16:02.257Z,993.73
2019-04-30T00:17:02.241Z,993.69
2019-04-30T00:18:02.237Z,993.69
2019-04-30T00:19:02.232Z,993.68
2019-04-30T00:20:02.224Z,993.66
2019-04-30T00:21:02.228Z,993.62
2019-04-30T00:22:02.215Z,993.57
2019-04-30T00:23:02.208Z,993.59
2019-04-30T00:24:06.076Z,993.57
2019-04-30T00:25:02.201Z,993.52
2019-04-30T00:26:05.854Z,993.51
2019-04-30T00:27:02.187Z,993.47
2019-04-30T00:28:05.104Z,993.52
2019-04-30T00:29:02.173Z,993.46
2019-04-30T00:30:05.318Z,993.5
2019-04-30T00:31:02.174Z,993.52
2019-04-30T00:32:04.197Z,993.52
2019-04-30T00:33:02.153Z,993.53
2019-04-30T00:34:02.166Z,993.59
2019-04-30T00:35:02.150Z,993.61
2019-04-30T00:36:02.137Z,993.64
2019-04-30T00:37:02.129Z,993.62
2019-04-30T00:38:02.126Z,993.55
2019-04-30T00:39:02.121Z,993.62
2019-04-30T00:40:02.119Z,993.62
2019-04-30T00:41:06.673Z,993.61
2019-04-30T00:42:02.105Z,993.55
2019-04-30T00:43:05.127Z,993.61
2019-04-30T00:44:02.090Z,993.62
2019-04-30T00:45:04.635Z,993.66
2019-04-30T00:46:02.079Z,993.64
2019-04-30T00:47:04.815Z,993.65
2019-04-30T00:48:02.074Z,993.64
2019-04-30T00:49:09.010Z,993.63
2019-04-30T00:50:02.069Z,993.62
2019-04-30T00:51:02.051Z,993.58
2019-04-30T00:52:02.047Z,993.56
2019-04-30T00:53:05.778Z,993.54
2019-04-30T00:54:02.035Z,993.56
2019-04-30T00:55:05.383Z,993.6
2019-04-30T00:56:02.031Z,993.55
2019-04-30T00:57:04.192Z,993.6
2019-04-30T00:58:02.023Z,993.6
2019-04-30T00:59:02.382Z,993.57
2019-04-30T01:00:02.019Z,993.55
2019-04-30T01:01:04.782Z,993.54
2019-04-30T01:02:01.995Z,993.56
2019-04-30T01:03:05.759Z,993.54
2019-04-30T01:04:01.991Z,993.55
2019-04-30T01:05:05.142Z,993.53
2019-04-30T01:06:01.976Z,993.45
2019-04-30T01:07:05.098Z,993.51
2019-04-30T01:08:01.964Z,993.54
2019-04-30T01:09:05.281Z,993.5
2019-04-30T01:10:01.999Z,993.49
2019-04-30T01:11:04.463Z,993.51
2019-04-30T01:12:01.937Z,993.53
2019-04-30T01:13:07.890Z,993.57
2019-04-30T01:14:01.935Z,993.53
2019-04-30T01:15:06.369Z,993.55
2019-04-30T01:16:01.921Z,993.5
2019-04-30T01:17:03.667Z,993.49
2019-04-30T01:18:01.908Z,993.45
2019-04-30T01:19:05.644Z,993.46
2019-04-30T01:20:01.898Z,993.44
2019-04-30T01:21:02.857Z,993.49
2019-04-30T01:22:01.888Z,993.45
2019-04-30T01:23:02.985Z,993.47
2019-04-30T01:24:01.876Z,993.46
2019-04-30T01:25:08.771Z,993.47
2019-04-30T01:26:01.865Z,993.4
2019-04-30T01:27:06.658Z,993.38
2019-04-30T01:28:01.857Z,993.34
2019-04-30T01:29:02.240Z,993.32
2019-04-30T01:30:01.903Z,993.31
2019-04-30T01:31:02.089Z,993.28
2019-04-30T01:32:01.830Z,993.32
2019-04-30T01:33:01.828Z,993.3
2019-04-30T01:34:05.015Z,993.31
2019-04-30T01:35:01.816Z,993.32
2019-04-30T01:36:03.973Z,993.3
2019-04-30T01:37:01.805Z,993.35
2019-04-30T01:38:03.945Z,993.36
2019-04-30T01:39:01.796Z,993.34
2019-04-30T01:40:03.028Z,993.38
2019-04-30T01:41:01.787Z,993.31
2019-04-30T01:42:06.938Z,993.38
2019-04-30T01:43:01.786Z,993.33
2019-04-30T01:44:03.687Z,993.32
2019-04-30T01:45:01.762Z,993.31
2019-04-30T01:46:08.322Z,993.28
2019-04-30T01:47:01.750Z,993.27
2019-04-30T01:48:08.564Z,993.31
2019-04-30T01:49:01.741Z,993.28
2019-04-30T01:50:04.794Z,993.31
2019-04-30T01:51:01.738Z,993.28
2019-04-30T01:52:01.722Z,993.28
2019-04-30T01:53:04.692Z,993.29
2019-04-30T01:54:01.736Z,993.27
2019-04-30T01:55:01.756Z,993.22
2019-04-30T01:56:01.703Z,993.2
2019-04-30T01:57:01.696Z,993.24
2019-04-30T01:58:01.692Z,993.2
2019-04-30T01:59:01.688Z,993.19
2019-04-30T02:00:01.689Z,993.2
2019-04-30T02:01:01.675Z,993.2
2019-04-30T02:02:01.671Z,993.21
2019-04-30T02:03:01.663Z,993.17
2019-04-30T02:04:01.658Z,993.2
2019-04-30T02:05:01.650Z,993.21
2019-04-30T02:06:01.648Z,993.19
2019-04-30T02:07:01.641Z,993.18
2019-04-30T02:08:01.639Z,993.18
2019-04-30T02:09:01.629Z,993.18
2019-04-30T02:10:01.666Z,993.17
2019-04-30T02:11:01.619Z,993.23
2019-04-30T02:12:01.614Z,993.22
2019-04-30T02:13:01.607Z,993.2
2019-04-30T02:14:01.605Z,993.21
2019-04-30T02:15:01.597Z,993.23
2019-04-30T02:16:01.591Z,993.25
2019-04-30T02:17:01.588Z,993.24
2019-04-30T02:18:01.580Z,993.21
2019-04-30T02:19:01.575Z,993.16
2019-04-30T02:20:01.574Z,993.21
2019-04-30T02:21:01.562Z,993.21
2019-04-30T02:22:01.563Z,993.22
2019-04-30T02:23:01.554Z,993.22
2019-04-30T02:24:01.560Z,993.2
2019-04-30T02:25:01.545Z,993.19
2019-04-30T02:26:01.537Z,993.2
2019-04-30T02:27:01.533Z,993.19
2019-04-30T02:28:01.537Z,993.19
2019-04-30T02:29:01.524Z,993.22
2019-04-30T02:30:02.585Z,993.23
2019-04-30T02:31:01.515Z,993.26
2019-04-30T02:32:01.506Z,993.21
2019-04-30T02:33:01.542Z,993.24
2019-04-30T02:34:01.493Z,993.21
2019-04-30T02:35:01.499Z,993.21
2019-04-30T02:36:03.622Z,993.21
2019-04-30T02:37:01.477Z,993.21
2019-04-30T02:38:01.472Z,993.22
2019-04-30T02:39:02.614Z,993.19
2019-04-30T02:40:01.459Z,993.21
2019-04-30T02:41:01.457Z,993.21
2019-04-30T02:42:01.463Z,993.18
2019-04-30T02:43:01.909Z,993.18
2019-04-30T02:44:01.462Z,993.2
2019-04-30T02:45:03.680Z,993.19
2019-04-30T02:46:01.434Z,993.24
2019-04-30T02:47:01.425Z,993.26
2019-04-30T02:48:01.417Z,993.23
2019-04-30T02:49:01.410Z,993.26
2019-04-30T02:50:13.514Z,993.29
2019-04-30T02:51:01.401Z,993.26
2019-04-30T02:52:01.403Z,993.29
2019-04-30T02:53:02.759Z,993.24
2019-04-30T02:54:01.385Z,993.23
2019-04-30T02:55:01.380Z,993.23
2019-04-30T02:56:02.566Z,993.23
2019-04-30T02:57:01.370Z,993.18
2019-04-30T02:58:01.363Z,993.17
2019-04-30T02:59:03.670Z,993.14
2019-04-30T03:00:01.472Z,993.14
2019-04-30T03:01:01.345Z,993.17
2019-04-30T03:02:01.343Z,993.13
2019-04-30T03:03:01.339Z,993.18
2019-04-30T03:04:01.347Z,993.16
2019-04-30T03:05:01.328Z,993.16
2019-04-30T03:06:01.320Z,993.18
2019-04-30T03:07:01.352Z,993.18
2019-04-30T03:08:01.310Z,993.17
2019-04-30T03:09:01.459Z,993.16
2019-04-30T03:10:01.306Z,993.14
2019-04-30T03:11:01.294Z,993.14
2019-04-30T03:12:01.301Z,993.13
2019-04-30T03:13:01.288Z,993.12
2019-04-30T03:14:01.276Z,993.11
2019-04-30T03:15:01.274Z,993.1
2019-04-30T03:16:01.267Z,993.09
2019-04-30T03:17:01.384Z,993.09
2019-04-30T03:18:01.266Z,993.06
2019-04-30T03:19:01.251Z,993.07
2019-04-30T03:20:03.394Z,993.02
2019-04-30T03:21:01.240Z,993.03
2019-04-30T03:22:01.233Z,992.97
2019-04-30T03:23:02.360Z,992.97
2019-04-30T03:24:01.226Z,992.97
2019-04-30T03:25:01.220Z,993.02
2019-04-30T03:26:01.213Z,992.98
2019-04-30T03:27:01.224Z,992.97
2019-04-30T03:28:01.208Z,993.01
2019-04-30T03:29:01.199Z,992.95
2019-04-30T03:30:01.210Z,993
2019-04-30T03:31:04.193Z,993.02
2019-04-30T03:32:02.478Z,993.04
2019-04-30T03:33:02.562Z,992.99
2019-04-30T03:34:02.162Z,992.96
2019-04-30T03:35:03.038Z,993
2019-04-30T03:36:02.427Z,992.95
2019-04-30T03:37:01.978Z,992.99
2019-04-30T03:38:01.153Z,992.98
2019-04-30T03:39:01.146Z,993.02
2019-04-30T03:40:01.139Z,992.99
2019-04-30T03:41:01.136Z,993
2019-04-30T03:42:01.134Z,993.03
2019-04-30T03:43:03.021Z,993.01
2019-04-30T03:44:16.263Z,992.97
2019-04-30T03:45:01.118Z,993
2019-04-30T03:46:02.673Z,992.97
2019-04-30T03:47:01.101Z,992.96
2019-04-30T03:48:01.102Z,992.94
2019-04-30T03:49:01.093Z,992.92
2019-04-30T03:50:01.090Z,992.92
2019-04-30T03:51:01.313Z,992.91
2019-04-30T03:52:01.079Z,992.91
2019-04-30T03:53:01.070Z,992.91
2019-04-30T03:54:01.076Z,992.92
2019-04-30T03:55:02.812Z,992.96
2019-04-30T03:56:01.513Z,992.99
2019-04-30T03:57:01.210Z,992.91
2019-04-30T03:58:01.043Z,992.96
2019-04-30T03:59:01.042Z,992.95
2019-04-30T04:00:01.039Z,992.94
2019-04-30T04:01:01.028Z,992.98
2019-04-30T04:02:01.020Z,992.97
2019-04-30T04:03:01.039Z,992.97
2019-04-30T04:04:01.013Z,992.93
2019-04-30T04:05:01.248Z,992.93
2019-04-30T04:06:00.998Z,992.9
2019-04-30T04:07:00.993Z,992.91
2019-04-30T04:08:00.990Z,992.95
2019-04-30T04:09:00.997Z,993
2019-04-30T04:10:00.986Z,992.99
2019-04-30T04:11:00.971Z,993.01
2019-04-30T04:12:00.967Z,992.99
2019-04-30T04:13:00.964Z,993.01
2019-04-30T04:14:00.957Z,993.01
2019-04-30T04:15:03.834Z,993.01
2019-04-30T04:16:00.947Z,992.99
2019-04-30T04:17:00.940Z,993.02
2019-04-30T04:18:00.942Z,993.05
2019-04-30T04:19:02.665Z,993
2019-04-30T04:20:00.924Z,993
2019-04-30T04:21:11.242Z,993.02
2019-04-30T04:22:03.806Z,993.05
2019-04-30T04:23:00.909Z,993.08
2019-04-30T04:24:00.910Z,993.12
2019-04-30T04:25:00.903Z,993.1
2019-04-30T04:26:00.951Z,993.1
2019-04-30T04:27:00.894Z,993.08
2019-04-30T04:28:00.880Z,993.15
2019-04-30T04:29:00.878Z,993.14
2019-04-30T04:30:01.375Z,993.14
2019-04-30T04:31:00.865Z,993.18
2019-04-30T04:32:00.967Z,993.14
2019-04-30T04:33:00.866Z,993.13
2019-04-30T04:34:00.853Z,993.17
2019-04-30T04:35:00.883Z,993.17
2019-04-30T04:36:00.889Z,993.18
2019-04-30T04:37:00.842Z,993.23
2019-04-30T04:38:00.860Z,993.16
2019-04-30T04:39:00.831Z,993.16
2019-04-30T04:40:00.819Z,993.14
2019-04-30T04:41:02.957Z,993.15
2019-04-30T04:42:00.808Z,993.16
2019-04-30T04:43:00.805Z,993.17
2019-04-30T04:44:00.803Z,993.13
2019-04-30T04:45:00.798Z,993.16
2019-04-30T04:46:00.792Z,993.12
2019-04-30T04:47:00.784Z,993.15
2019-04-30T04:48:00.779Z,993.17
2019-04-30T04:49:00.781Z,993.14
2019-04-30T04:50:01.042Z,993.16
2019-04-30T04:51:00.765Z,993.12
2019-04-30T04:52:00.764Z,993.15
2019-04-30T04:53:00.755Z,993.13
2019-04-30T04:54:03.183Z,993.14
2019-04-30T04:55:00.828Z,993.15
2019-04-30T04:56:00.742Z,993.17
2019-04-30T04:57:13.129Z,993.15
2019-04-30T04:58:00.731Z,993.15
2019-04-30T04:59:00.724Z,993.16
2019-04-30T05:00:07.068Z,993.21
2019-04-30T05:01:00.718Z,993.22
2019-04-30T05:02:00.723Z,993.2
2019-04-30T05:03:00.712Z,993.23
2019-04-30T05:04:00.711Z,993.24
2019-04-30T05:05:00.709Z,993.21
2019-04-30T05:06:02.478Z,993.26
2019-04-30T05:07:00.687Z,993.24
2019-04-30T05:08:00.682Z,993.23
2019-04-30T05:09:01.655Z,993.21
2019-04-30T05:10:00.946Z,993.25
2019-04-30T05:11:00.668Z,993.27
2019-04-30T05:12:00.664Z,993.25
2019-04-30T05:13:00.659Z,993.28
2019-04-30T05:14:00.666Z,993.29
2019-04-30T05:15:00.657Z,993.25
2019-04-30T05:16:00.657Z,993.28
2019-04-30T05:17:00.640Z,993.3
2019-04-30T05:18:00.631Z,993.3
2019-04-30T05:19:01.134Z,993.33
2019-04-30T05:20:00.629Z,993.3
2019-04-30T05:21:00.627Z,993.37
2019-04-30T05:22:00.610Z,993.34
2019-04-30T05:23:00.604Z,993.35
2019-04-30T05:24:00.603Z,993.34
2019-04-30T05:25:00.600Z,993.39
2019-04-30T05:26:00.600Z,993.36
2019-04-30T05:27:00.589Z,993.4
2019-04-30T05:28:00.584Z,993.41
2019-04-30T05:29:00.579Z,993.4
2019-04-30T05:30:00.572Z,993.42
2019-04-30T05:31:00.568Z,993.4
2019-04-30T05:32:00.564Z,993.39
2019-04-30T05:33:00.563Z,993.41
2019-04-30T05:34:00.610Z,993.42
2019-04-30T05:35:00.616Z,993.41
2019-04-30T05:36:00.544Z,993.42
2019-04-30T05:37:00.986Z,993.37
2019-04-30T05:38:00.533Z,993.47
2019-04-30T05:39:00.530Z,993.37
2019-04-30T05:40:00.987Z,993.38
2019-04-30T05:41:00.526Z,993.38
2019-04-30T05:42:00.515Z,993.4
2019-04-30T05:43:00.518Z,993.37
2019-04-30T05:44:00.504Z,993.38
2019-04-30T05:45:00.501Z,993.37
2019-04-30T05:46:00.499Z,993.33
2019-04-30T05:47:00.501Z,993.41
2019-04-30T05:48:00.496Z,993.36
2019-04-30T05:49:00.486Z,993.35
2019-04-30T05:50:00.477Z,993.4
2019-04-30T05:51:00.473Z,993.4
2019-04-30T05:52:00.468Z,993.43
2019-04-30T05:53:00.477Z,993.45
2019-04-30T05:54:00.459Z,993.42
2019-04-30T05:55:00.455Z,993.4
2019-04-30T05:56:03.020Z,993.44
2019-04-30T05:57:00.450Z,993.46
2019-04-30T05:58:01.450Z,993.45
2019-04-30T05:59:00.447Z,993.42
2019-04-30T06:00:00.430Z,993.44
2019-04-30T06:01:00.429Z,993.45
2019-04-30T06:02:00.421Z,993.47
2019-04-30T06:03:00.417Z,993.42
2019-04-30T06:04:00.412Z,993.46
2019-04-30T06:05:00.410Z,993.5
2019-04-30T06:06:00.404Z,993.51
2019-04-30T06:07:00.400Z,993.48
2019-04-30T06:08:00.394Z,993.51
2019-04-30T06:09:06.059Z,993.51
2019-04-30T06:10:00.389Z,993.49
2019-04-30T06:11:00.381Z,993.54
2019-04-30T06:12:00.379Z,993.54
2019-04-30T06:13:00.374Z,993.5
2019-04-30T06:14:00.365Z,993.57
2019-04-30T06:15:00.363Z,993.54
2019-04-30T06:16:00.358Z,993.51
2019-04-30T06:17:00.356Z,993.49
2019-04-30T06:18:10.386Z,993.52
2019-04-30T06:19:00.342Z,993.47
2019-04-30T06:20:00.342Z,993.47
2019-04-30T06:21:00.335Z,993.45
2019-04-30T06:22:07.275Z,993.48
2019-04-30T06:23:00.328Z,993.47
2019-04-30T06:24:00.322Z,993.46
2019-04-30T06:25:00.326Z,993.47
2019-04-30T06:26:08.874Z,993.48
2019-04-30T06:27:00.368Z,993.45
2019-04-30T06:28:00.314Z,993.41
2019-04-30T06:29:00.304Z,993.46
2019-04-30T06:30:00.296Z,993.43
2019-04-30T06:31:00.301Z,993.43
2019-04-30T06:32:00.290Z,993.42
2019-04-30T06:33:00.294Z,993.43
2019-04-30T06:34:00.280Z,993.45
2019-04-30T06:35:00.277Z,993.44
2019-04-30T06:36:00.268Z,993.46
2019-04-30T06:37:00.263Z,993.5
2019-04-30T06:38:00.259Z,993.49
2019-04-30T06:39:00.254Z,993.47
2019-04-30T06:40:00.266Z,993.49
2019-04-30T06:41:00.246Z,993.51
2019-04-30T06:42:06.318Z,993.53
2019-04-30T06:43:00.697Z,993.48
2019-04-30T06:44:00.239Z,993.48
2019-04-30T06:45:00.231Z,993.49
2019-04-30T06:46:00.227Z,993.48
2019-04-30T06:47:01.222Z,993.54
2019-04-30T06:48:00.217Z,993.52
2019-04-30T06:49:00.212Z,993.55
2019-04-30T06:50:01.305Z,993.54
2019-04-30T06:51:00.207Z,993.57
2019-04-30T06:52:00.199Z,993.56
2019-04-30T06:53:01.559Z,993.54
2019-04-30T06:54:00.190Z,993.58
2019-04-30T06:55:00.191Z,993.6
2019-04-30T06:56:00.181Z,993.58
2019-04-30T06:57:01.027Z,993.59
2019-04-30T06:58:11.806Z,993.64
2019-04-30T06:59:00.172Z,993.66
2019-04-30T07:00:00.165Z,993.65
2019-04-30T07:01:00.164Z,993.66
2019-04-30T07:02:00.154Z,993.69
2019-04-30T07:03:00.149Z,993.65
2019-04-30T07:04:00.980Z,993.68
2019-04-30T07:05:00.140Z,993.66
2019-04-30T07:06:00.141Z,993.67
2019-04-30T07:07:00.133Z,993.69
2019-04-30T07:08:04.302Z,993.69
2019-04-30T07:09:00.130Z,993.7
2019-04-30T07:10:01.171Z,993.74
2019-04-30T07:11:07.366Z,993.75
2019-04-30T07:12:00.133Z,993.77
2019-04-30T07:13:00.109Z,993.76
2019-04-30T07:14:00.174Z,993.78
2019-04-30T07:15:00.099Z,993.79
2019-04-30T07:16:00.094Z,993.78
2019-04-30T07:17:00.092Z,993.77
2019-04-30T07:18:00.088Z,993.77
2019-04-30T07:19:00.082Z,993.8
2019-04-30T07:20:00.088Z,993.78
2019-04-30T07:21:00.079Z,993.79
2019-04-30T07:22:00.072Z,993.83
2019-04-30T07:23:02.890Z,993.78
2019-04-30T07:24:00.059Z,993.79
2019-04-30T07:25:00.061Z,993.83
2019-04-30T07:26:00.056Z,993.81
2019-04-30T07:28:11.073Z,993.84
2019-04-30T07:29:11.131Z,993.82
2019-04-30T07:30:11.074Z,993.83
2019-04-30T07:31:14.279Z,993.85
2019-04-30T07:32:11.056Z,993.84
2019-04-30T07:33:11.050Z,993.84
2019-04-30T07:34:11.060Z,993.87
2019-04-30T07:35:11.048Z,993.9
2019-04-30T07:36:11.047Z,993.88
2019-04-30T07:37:16.480Z,993.86
2019-04-30T07:38:11.032Z,993.87
2019-04-30T07:39:11.029Z,993.89
2019-04-30T07:40:11.023Z,993.93
2019-04-30T07:41:11.019Z,993.96
2019-04-30T07:42:11.016Z,993.91
2019-04-30T07:43:11.064Z,993.95
2019-04-30T07:44:22.200Z,993.94
2019-04-30T07:45:11.001Z,993.95
2019-04-30T07:46:11.002Z,994
2019-04-30T07:47:11.003Z,993.98
2019-04-30T07:48:10.999Z,994
2019-04-30T07:49:10.983Z,993.96
2019-04-30T07:50:11.246Z,993.96
2019-04-30T07:51:11.542Z,993.97
2019-04-30T07:52:11.849Z,993.97
2019-04-30T07:53:11.823Z,994.05
2019-04-30T07:54:10.957Z,994.02
2019-04-30T07:55:10.964Z,994.04
2019-04-30T07:56:23.909Z,994.07
2019-04-30T07:57:11.012Z,994.05
2019-04-30T07:58:12.542Z,994.05
2019-04-30T07:59:11.195Z,994.05
2019-04-30T08:00:10.932Z,994.05
2019-04-30T08:01:10.925Z,994.08
2019-04-30T08:02:14.571Z,994.09
2019-04-30T08:03:11.261Z,994.1
2019-04-30T08:04:10.975Z,994.04
2019-04-30T08:05:10.927Z,994.05
2019-04-30T08:06:10.967Z,994.08
2019-04-30T08:07:10.910Z,994.05
2019-04-30T08:08:20.749Z,994.06
2019-04-30T08:09:10.888Z,994.06
2019-04-30T08:10:10.880Z,994.06
2019-04-30T08:11:22.908Z,994.08
2019-04-30T08:12:11.926Z,994.13
2019-04-30T08:13:14.645Z,994.11
2019-04-30T18:35:18.634Z,992.21
2019-04-30T18:36:19.329Z,992.17
2019-04-30T18:37:18.880Z,992.21
2019-04-30T18:38:17.765Z,992.22
2019-04-30T18:39:18.875Z,992.18
2019-04-30T18:40:18.633Z,992.2
2019-04-30T18:41:18.912Z,992.2
2019-04-30T18:42:18.971Z,992.17
2019-04-30T18:43:18.901Z,992.16
2019-04-30T18:44:19.064Z,992.14
2019-04-30T18:45:19.201Z,992.16
2019-04-30T18:46:19.095Z,992.12
2019-04-30T18:47:18.857Z,992.1
2019-04-30T18:48:19.350Z,992.07
2019-04-30T18:49:18.728Z,992.08
2019-04-30T18:50:17.288Z,992.09
2019-04-30T18:51:31.197Z,992.13
2019-04-30T18:52:18.787Z,992.14
2019-04-30T18:53:18.523Z,992.13
2019-04-30T18:54:18.329Z,992.17
2019-04-30T18:55:19.100Z,992.19
2019-04-30T18:56:19.000Z,992.17
2019-04-30T18:57:17.257Z,992.19
2019-04-30T18:58:19.626Z,992.23
2019-04-30T18:59:17.257Z,992.2
2019-04-30T19:00:19.659Z,992.22
2019-04-30T19:01:17.299Z,992.2
2019-04-30T19:02:17.247Z,992.21
2019-04-30T19:03:19.773Z,992.23
2019-04-30T19:04:18.892Z,992.22
2019-04-30T19:05:17.223Z,992.25
2019-04-30T19:06:23.480Z,992.24
2019-04-30T19:07:17.219Z,992.27
2019-04-30T19:08:17.216Z,992.28
2019-04-30T19:09:17.205Z,992.31
2019-04-30T19:10:17.201Z,992.31
2019-04-30T19:11:18.743Z,992.34
2019-04-30T19:12:19.345Z,992.34
2019-04-30T19:13:18.822Z,992.35
2019-04-30T19:14:19.243Z,992.34
2019-04-30T19:15:17.178Z,992.39
2019-04-30T19:16:22.834Z,992.34
2019-04-30T19:17:19.430Z,992.35
2019-04-30T19:18:18.278Z,992.37
2019-04-30T19:19:19.542Z,992.39
2019-04-30T19:20:18.760Z,992.38
2019-04-30T19:21:18.260Z,992.39
2019-04-30T19:22:18.725Z,992.4
2019-04-30T19:23:19.036Z,992.41
2019-04-30T19:24:19.680Z,992.43
2019-04-30T19:25:19.061Z,992.44
2019-04-30T19:26:18.995Z,992.39
2019-04-30T19:27:18.662Z,992.39
2019-04-30T19:28:18.840Z,992.46
2019-04-30T19:29:18.230Z,992.44
2019-04-30T19:30:19.237Z,992.46
2019-04-30T19:31:19.858Z,992.46
2019-04-30T19:32:18.211Z,992.42
2019-04-30T19:33:18.205Z,992.44
2019-04-30T19:34:18.205Z,992.46
2019-04-30T19:35:18.745Z,992.47
2019-04-30T19:36:20.313Z,992.46
2019-04-30T19:37:19.650Z,992.48
2019-04-30T19:38:18.184Z,992.49
2019-04-30T19:39:19.481Z,992.52
2019-04-30T19:40:18.981Z,992.48
2019-04-30T19:41:18.886Z,992.54
2019-04-30T19:42:18.734Z,992.55
2019-04-30T19:43:18.164Z,992.53
2019-04-30T19:44:20.439Z,992.55
2019-04-30T19:45:18.156Z,992.56
2019-04-30T19:46:18.740Z,992.57
2019-04-30T19:47:19.058Z,992.56
2019-04-30T19:48:18.193Z,992.54
2019-04-30T19:49:19.190Z,992.53
2019-04-30T19:50:19.229Z,992.61
2019-04-30T19:51:19.729Z,992.62
2019-04-30T19:52:19.167Z,992.64
2019-04-30T19:53:21.475Z,992.63
2019-04-30T19:54:19.218Z,992.66
2019-04-30T19:55:20.286Z,992.67
2019-04-30T19:56:20.357Z,992.71
2019-04-30T19:57:19.098Z,992.71
2019-04-30T19:58:26.025Z,992.72
2019-04-30T19:59:19.325Z,992.72
2019-04-30T20:00:18.089Z,992.74
2019-04-30T20:01:18.093Z,992.73
2019-04-30T20:02:19.064Z,992.72
2019-04-30T20:03:19.723Z,992.73
2019-04-30T20:04:18.518Z,992.75
2019-04-30T20:05:19.380Z,992.75
2019-04-30T20:06:19.088Z,992.74
2019-04-30T20:07:19.501Z,992.75
2019-04-30T20:08:19.798Z,992.72
2019-04-30T20:09:19.376Z,992.74
2019-04-30T20:10:19.531Z,992.69
2019-04-30T20:11:18.040Z,992.7
2019-04-30T20:12:18.801Z,992.74
2019-04-30T20:13:28.914Z,992.68
2019-04-30T20:14:18.634Z,992.68
2019-04-30T20:15:21.633Z,992.67
2019-04-30T20:16:19.556Z,992.66
2019-04-30T20:17:19.439Z,992.66
2019-04-30T20:18:19.013Z,992.63
2019-04-30T20:19:18.003Z,992.63
2019-04-30T20:20:18.871Z,992.62
2019-04-30T20:21:26.023Z,992.66
2019-04-30T20:22:19.546Z,992.64
2019-04-30T20:23:17.986Z,992.65
2019-04-30T20:24:19.062Z,992.66
2019-04-30T20:25:19.043Z,992.62
2019-04-30T20:26:18.007Z,992.65
2019-04-30T20:27:18.973Z,992.63
2019-04-30T20:28:17.965Z,992.65
2019-04-30T20:29:18.584Z,992.64
2019-04-30T20:30:19.523Z,992.63
2019-04-30T20:31:19.003Z,992.63
2019-04-30T20:32:19.639Z,992.64
2019-04-30T20:33:19.005Z,992.62
2019-04-30T20:34:19.135Z,992.61
2019-04-30T20:35:17.932Z,992.69
2019-04-30T20:36:18.995Z,992.61
2019-04-30T20:37:19.598Z,992.61
2019-04-30T20:38:19.432Z,992.61
2019-04-30T20:39:17.908Z,992.6
2019-04-30T20:40:18.538Z,992.58
2019-04-30T20:41:18.637Z,992.61
2019-04-30T20:42:17.898Z,992.58
2019-04-30T20:43:18.610Z,992.62
2019-04-30T20:44:18.973Z,992.6
2019-04-30T20:45:18.826Z,992.57
2019-04-30T20:46:29.608Z,992.63
2019-04-30T20:47:18.369Z,992.59
2019-04-30T20:48:18.796Z,992.57
2019-04-30T20:49:19.187Z,992.55
2019-04-30T20:50:17.854Z,992.56
2019-04-30T20:51:19.621Z,992.59
2019-04-30T20:52:18.962Z,992.59
2019-04-30T20:53:19.609Z,992.59
2019-04-30T20:54:18.978Z,992.58
2019-04-30T20:55:17.836Z,992.63
2019-04-30T20:56:19.096Z,992.57
2019-04-30T20:57:19.747Z,992.56
2019-04-30T20:58:17.823Z,992.61
2019-04-30T20:59:18.998Z,992.56
2019-04-30T21:00:17.812Z,992.58
2019-04-30T21:01:19.309Z,992.56
2019-04-30T21:02:18.512Z,992.54
2019-04-30T21:03:19.579Z,992.56
2019-04-30T21:04:20.485Z,992.54
2019-04-30T21:05:17.812Z,992.5
2019-04-30T21:06:19.695Z,992.56
2019-04-30T21:07:19.473Z,992.53
2019-04-30T21:08:17.762Z,992.48
2019-04-30T21:09:17.759Z,992.51
2019-04-30T21:10:19.794Z,992.45
2019-04-30T21:11:19.291Z,992.45
2019-04-30T21:12:18.715Z,992.46
2019-04-30T21:13:19.314Z,992.45
2019-04-30T21:14:19.155Z,992.46
2019-04-30T21:15:19.462Z,992.44
2019-04-30T21:16:18.765Z,992.44
2019-04-30T21:17:17.712Z,992.41
2019-04-30T21:18:19.495Z,992.42
2019-04-30T21:19:17.705Z,992.4
2019-04-30T21:20:19.346Z,992.39
2019-04-30T21:21:20.481Z,992.4
2019-04-30T21:22:19.438Z,992.4
2019-04-30T21:23:19.394Z,992.37
2019-04-30T21:24:17.676Z,992.41
2019-04-30T21:25:18.770Z,992.42
2019-04-30T21:26:19.489Z,992.4
2019-04-30T21:27:17.658Z,992.45
2019-04-30T21:28:19.668Z,992.42
2019-04-30T21:29:18.843Z,992.39
2019-04-30T21:30:17.678Z,992.42
2019-04-30T21:31:17.650Z,992.4
2019-04-30T21:32:18.921Z,992.44
2019-04-30T21:33:19.297Z,992.43
2019-04-30T21:34:19.409Z,992.48
2019-04-30T21:35:17.615Z,992.43
2019-04-30T21:36:18.881Z,992.46
2019-04-30T21:37:17.606Z,992.46
2019-04-30T21:38:19.359Z,992.5
2019-04-30T21:39:17.595Z,992.5
2019-04-30T21:40:19.505Z,992.51
2019-04-30T21:41:19.442Z,992.48
2019-04-30T21:42:17.578Z,992.49
2019-04-30T21:43:17.570Z,992.5
2019-04-30T21:44:17.568Z,992.5
2019-04-30T21:45:17.558Z,992.51
2019-04-30T21:46:19.164Z,992.51
2019-04-30T21:47:17.552Z,992.48
2019-04-30T21:48:19.114Z,992.52
2019-04-30T21:49:17.536Z,992.48
2019-04-30T21:50:19.540Z,992.49
2019-04-30T21:51:19.219Z,992.49
2019-04-30T21:52:17.520Z,992.46
2019-04-30T21:53:19.394Z,992.49
2019-04-30T21:54:17.506Z,992.5
2019-04-30T21:55:19.581Z,992.51
2019-04-30T21:56:17.496Z,992.49
2019-04-30T21:57:17.489Z,992.46
2019-04-30T21:58:20.158Z,992.45
2019-04-30T21:59:24.006Z,992.5
2019-04-30T22:00:18.502Z,992.51
2019-04-30T22:01:17.465Z,992.49
2019-04-30T22:02:17.457Z,992.49
2019-04-30T22:03:19.534Z,992.47
2019-04-30T22:04:17.445Z,992.49
2019-04-30T22:05:17.439Z,992.5
2019-04-30T22:06:19.451Z,992.49
2019-04-30T22:07:19.328Z,992.51
2019-04-30T22:08:18.869Z,992.5
2019-04-30T22:09:17.420Z,992.55
2019-04-30T22:10:17.414Z,992.54
2019-04-30T22:11:19.544Z,992.52
2019-04-30T22:12:19.104Z,992.51
2019-04-30T22:13:18.490Z,992.52
2019-04-30T22:14:17.382Z,992.53
2019-04-30T22:15:17.377Z,992.5
2019-04-30T22:16:19.899Z,992.54
2019-04-30T22:17:19.222Z,992.59
2019-04-30T22:18:17.356Z,992.53
2019-04-30T22:19:17.360Z,992.53
2019-04-30T22:20:19.036Z,992.53
2019-04-30T22:21:17.344Z,992.54
2019-04-30T22:22:19.098Z,992.55
2019-04-30T22:23:17.360Z,992.53
2019-04-30T22:24:17.321Z,992.51
2019-04-30T22:25:19.213Z,992.51
2019-04-30T22:26:17.310Z,992.53
2019-04-30T22:27:17.542Z,992.52
2019-04-30T22:28:17.299Z,992.51
2019-04-30T22:29:18.943Z,992.54
2019-04-30T22:30:17.289Z,992.55
2019-04-30T22:31:17.283Z,992.54
2019-04-30T22:32:17.283Z,992.54
2019-04-30T22:33:18.900Z,992.54
2019-04-30T22:34:17.259Z,992.55
2019-04-30T22:35:17.256Z,992.53
2019-04-30T22:36:18.870Z,992.54
2019-04-30T22:37:19.515Z,992.53
2019-04-30T22:38:18.990Z,992.55
2019-04-30T22:39:17.253Z,992.53
2019-04-30T22:40:19.463Z,992.55
2019-04-30T22:41:17.229Z,992.53
2019-04-30T22:42:19.054Z,992.51
2019-04-30T22:43:17.222Z,992.56
2019-04-30T22:44:17.200Z,992.56
2019-04-30T22:45:17.195Z,992.53
2019-04-30T22:46:17.186Z,992.52
2019-04-30T22:47:17.182Z,992.55
2019-04-30T22:48:18.677Z,992.58
2019-04-30T22:49:17.166Z,992.61
2019-04-30T22:50:17.171Z,992.55
2019-04-30T22:51:17.156Z,992.55
2019-04-30T22:52:17.154Z,992.54
2019-04-30T22:53:17.143Z,992.52